createdAt,value
2022-08-07T00:02:35.209Z,29.42
2022-08-07T00:04:00.998Z,31.67
2022-08-07T00:06:33.379Z,30.63
2022-08-07T00:09:17.044Z,31.40
2022-08-07T00:11:55.458Z,34.43
2022-08-07T00:14:29.822Z,30.08
2022-08-07T00:16:59.522Z,29.75
2022-08-07T00:19:59.605Z,31.27
2022-08-07T00:22:34.487Z,35.33
2022-08-07T00:25:04.586Z,27.73
2022-08-07T00:27:51.982Z,31.05
2022-08-07T00:30:21.741Z,34.25
2022-08-07T00:32:53.992Z,31.00
2022-08-07T00:35:22.984Z,29.77
2022-08-07T00:37:50.414Z,26.75
2022-08-07T00:40:36.707Z,26.15
2022-08-07T00:43:09.992Z,29.38
2022-08-07T00:45:38.967Z,26.30
2022-08-07T00:48:09.587Z,31.75
2022-08-07T00:50:50.548Z,30.33
2022-08-07T00:53:17.757Z,28.77
2022-08-07T00:56:00.476Z,34.70
2022-08-07T00:58:29.218Z,29.10
2022-08-07T01:00:56.081Z,28.85
2022-08-07T01:03:57.276Z,34.33
2022-08-07T01:06:10.133Z,29.98
2022-08-07T01:08:52.077Z,33.67
2022-08-07T01:12:23.477Z,29.08
2022-08-07T01:14:09.159Z,31.00
2022-08-07T01:16:36.765Z,29.15
2022-08-07T01:19:18.063Z,32.00
2022-08-07T01:21:47.043Z,36.22
2022-08-07T01:24:18.712Z,33.38
2022-08-07T01:26:53.815Z,35.45
2022-08-07T01:29:27.768Z,35.30
2022-08-07T01:31:55.630Z,35.28
2022-08-07T01:34:31.061Z,34.08
2022-08-07T01:37:26.537Z,31.42
2022-08-07T01:44:19.487Z,27.65
2022-08-07T01:46:47.094Z,30.52
2022-08-07T01:52:01.761Z,27.67
2022-08-07T01:54:36.861Z,26.58
2022-08-07T01:57:24.441Z,29.50
2022-08-07T02:00:03.145Z,30.13
2022-08-07T02:03:12.540Z,28.10
2022-08-07T02:05:59.479Z,30.15
2022-08-07T02:08:30.560Z,30.92
2022-08-07T02:10:59.970Z,25.10
2022-08-07T02:13:58.217Z,27.23
2022-08-07T02:16:20.121Z,23.65
2022-08-07T02:18:56.857Z,22.80
2022-08-07T02:21:26.233Z,24.85
2022-08-07T02:24:17.836Z,22.98
2022-08-07T02:26:46.206Z,23.50
2022-08-07T02:29:13.913Z,26.40
2022-08-07T02:31:42.733Z,24.08
2022-08-07T02:39:43.719Z,25.55
2022-08-07T02:42:10.274Z,22.58
2022-08-07T02:44:48.297Z,24.65
2022-08-07T02:47:19.325Z,21.70
2022-08-07T02:49:56.470Z,27.73
2022-08-07T02:52:41.366Z,27.60
2022-08-07T02:55:28.645Z,20.75
2022-08-07T02:58:13.407Z,19.50
2022-08-07T03:00:47.033Z,26.45
2022-08-07T03:03:22.614Z,19.95
2022-08-07T03:05:54.403Z,18.40
2022-08-07T03:08:29.148Z,16.65
2022-08-07T03:10:59.530Z,20.95
2022-08-07T03:13:39.339Z,19.77
2022-08-07T03:16:18.509Z,16.08
2022-08-07T03:18:51.767Z,18.10
2022-08-07T03:21:19.446Z,16.42
2022-08-07T03:24:19.527Z,16.88
2022-08-07T03:26:43.091Z,15.70
2022-08-07T03:29:22.006Z,17.83
2022-08-07T03:31:51.298Z,16.55
2022-08-07T03:34:22.846Z,15.15
2022-08-07T03:36:59.854Z,15.50
2022-08-07T03:39:58.958Z,13.35
2022-08-07T03:42:28.912Z,15.70
2022-08-07T03:44:58.064Z,12.55
2022-08-07T03:47:29.420Z,13.13
2022-08-07T03:50:12.354Z,15.93
2022-08-07T03:55:09.676Z,14.15
2022-08-07T03:58:57.108Z,16.35
2022-08-07T04:00:37.520Z,15.38
2022-08-07T04:03:05.582Z,16.17
2022-08-07T04:05:41.023Z,13.45
2022-08-07T04:08:16.315Z,13.30
2022-08-07T04:10:54.756Z,12.18
2022-08-07T04:14:32.913Z,15.30
2022-08-07T04:16:31.149Z,14.10
2022-08-07T04:19:04.040Z,11.75
2022-08-07T04:21:39.347Z,11.15
2022-08-07T04:24:30.752Z,12.88
2022-08-07T04:27:20.695Z,15.27
2022-08-07T04:30:02.409Z,16.85
2022-08-07T04:32:58.098Z,12.05
2022-08-07T04:35:27.116Z,11.43
2022-08-07T04:38:03.210Z,13.60
2022-08-07T04:40:33.955Z,16.48
2022-08-07T04:43:03.183Z,12.75
2022-08-07T04:46:25.962Z,18.73
2022-08-07T04:49:18.102Z,13.93
2022-08-07T04:52:30.813Z,11.88
2022-08-07T04:58:11.836Z,11.50
2022-08-07T04:59:01.573Z,13.02
2022-08-07T05:01:45.056Z,11.23
2022-08-07T05:04:21.557Z,12.65
2022-08-07T05:07:20.653Z,9.18
2022-08-07T05:10:02.266Z,12.20
2022-08-07T05:14:44.676Z,12.20
2022-08-07T05:15:54.173Z,10.43
2022-08-07T05:18:34.173Z,11.48
2022-08-07T05:21:09.697Z,11.38
2022-08-07T05:23:53.249Z,16.83
2022-08-07T05:26:24.151Z,11.75
2022-08-07T05:28:59.136Z,13.30
2022-08-07T05:31:35.270Z,10.60
2022-08-07T05:34:12.031Z,11.55
2022-08-07T05:36:44.614Z,12.77
2022-08-07T05:40:18.143Z,13.38
2022-08-07T05:42:34.947Z,11.63
2022-08-07T05:45:14.751Z,11.65
2022-08-07T05:48:02.192Z,12.52
2022-08-07T05:50:36.999Z,15.63
2022-08-07T05:54:12.143Z,13.10
2022-08-07T05:56:03.495Z,14.65
2022-08-07T05:58:39.220Z,16.58
2022-08-07T06:01:11.542Z,10.73
2022-08-07T06:03:56.660Z,10.57
2022-08-07T06:06:30.000Z,12.93
2022-08-07T06:09:04.839Z,9.90
2022-08-07T06:11:34.731Z,10.57
2022-08-07T06:14:11.892Z,12.93
2022-08-07T06:16:50.629Z,10.40
2022-08-07T06:19:51.752Z,10.50
2022-08-07T06:22:23.973Z,15.60
2022-08-07T06:25:03.008Z,9.52
2022-08-07T06:27:44.122Z,10.38
2022-08-07T06:30:24.287Z,11.18
2022-08-07T06:33:15.582Z,11.83
2022-08-07T06:35:47.990Z,15.73
2022-08-07T06:38:30.695Z,13.52
2022-08-07T06:41:00.948Z,9.73
2022-08-07T06:43:39.222Z,10.55
2022-08-07T06:46:14.539Z,10.18
2022-08-07T06:48:44.605Z,9.45
2022-08-07T06:51:31.264Z,10.13
2022-08-07T06:55:27.948Z,12.82
2022-08-07T06:56:51.578Z,15.90
2022-08-07T07:00:12.604Z,13.05
2022-08-07T07:02:53.335Z,10.52
2022-08-07T07:05:06.152Z,9.88
2022-08-07T07:10:28.591Z,12.13
2022-08-07T07:13:00.115Z,11.02
2022-08-07T07:15:37.656Z,10.25
2022-08-07T07:18:11.859Z,12.60
2022-08-07T07:20:52.590Z,9.95
2022-08-07T07:24:11.129Z,9.10
2022-08-07T07:26:32.564Z,11.63
2022-08-07T07:29:40.493Z,10.80
2022-08-07T07:31:51.482Z,10.85
2022-08-07T07:34:32.115Z,12.68
2022-08-07T07:37:14.461Z,13.05
2022-08-07T07:39:54.252Z,10.98
2022-08-07T07:42:26.419Z,12.75
2022-08-07T07:45:05.660Z,8.90
2022-08-07T07:47:51.911Z,9.95
2022-08-07T07:50:33.820Z,10.05
2022-08-07T07:53:20.722Z,13.98
2022-08-07T07:56:00.486Z,13.80
2022-08-07T07:58:37.113Z,12.00
2022-08-07T08:02:02.338Z,12.57
2022-08-07T08:04:10.610Z,12.45
2022-08-07T08:06:50.927Z,9.45
2022-08-07T08:09:25.044Z,9.25
2022-08-07T08:12:01.751Z,12.27
2022-08-07T08:14:32.345Z,11.20
2022-08-07T08:17:55.732Z,10.43
2022-08-07T08:20:19.244Z,8.68
2022-08-07T08:23:01.213Z,12.90
2022-08-07T08:25:49.923Z,13.15
2022-08-07T08:28:23.749Z,9.70
2022-08-07T08:31:07.315Z,11.18
2022-08-07T08:33:48.995Z,8.73
2022-08-07T08:36:19.083Z,9.40
2022-08-07T08:38:55.790Z,8.50
2022-08-07T08:41:22.470Z,8.85
2022-08-07T08:46:38.898Z,9.63
2022-08-07T08:49:33.351Z,11.35
2022-08-07T08:52:19.021Z,8.82
2022-08-07T08:55:08.684Z,11.45
2022-08-07T08:57:44.237Z,8.38
2022-08-07T09:00:12.909Z,7.35
2022-08-07T09:02:58.438Z,8.40
2022-08-07T09:05:45.520Z,7.73
2022-08-07T09:08:17.831Z,10.07
2022-08-07T09:10:56.868Z,9.43
2022-08-07T09:14:03.957Z,11.02
2022-08-07T09:17:04.684Z,11.50
2022-08-07T09:19:57.431Z,12.32
2022-08-07T09:24:30.376Z,10.27
2022-08-07T09:28:06.010Z,11.00
2022-08-07T09:31:01.113Z,11.00
2022-08-07T09:33:56.794Z,12.47
2022-08-07T09:36:35.434Z,9.70
2022-08-07T09:39:54.115Z,11.43
2022-08-07T09:42:33.804Z,11.25
2022-08-07T09:47:42.628Z,10.90
2022-08-07T09:50:54.275Z,9.65
2022-08-07T09:53:24.504Z,12.75
2022-08-07T09:56:16.540Z,11.60
2022-08-07T09:59:44.369Z,11.48
2022-08-07T10:02:32.647Z,11.45
2022-08-07T10:05:18.668Z,11.32
2022-08-07T10:08:32.223Z,12.88
2022-08-07T10:12:01.297Z,12.95
2022-08-07T10:14:54.195Z,12.68
2022-08-07T10:18:01.703Z,10.70
2022-08-07T10:20:50.531Z,9.48
2022-08-07T10:24:06.515Z,13.60
2022-08-07T10:26:56.296Z,11.55
2022-08-07T10:29:58.578Z,9.47
2022-08-07T10:32:59.735Z,12.70
2022-08-07T10:35:53.492Z,13.93
2022-08-07T10:38:49.078Z,14.38
2022-08-07T10:41:52.393Z,14.13
2022-08-07T10:44:33.742Z,16.02
2022-08-07T10:47:26.640Z,10.43
2022-08-07T10:50:26.073Z,10.15
2022-08-07T10:52:57.711Z,9.60
2022-08-07T10:55:38.237Z,12.43
2022-08-07T10:58:13.609Z,9.27
2022-08-07T11:00:55.944Z,8.32
2022-08-07T11:03:51.211Z,11.77
2022-08-07T11:06:31.729Z,7.47
2022-08-07T11:09:12.895Z,10.52
2022-08-07T11:12:06.601Z,7.32
2022-08-07T11:14:45.851Z,9.90
2022-08-07T11:17:43.545Z,7.88
2022-08-07T11:20:24.486Z,6.68
2022-08-07T11:23:01.608Z,7.38
2022-08-07T11:25:50.165Z,8.90
2022-08-07T11:28:26.488Z,9.60
2022-08-07T11:31:15.961Z,7.32
2022-08-07T11:33:58.562Z,7.43
2022-08-07T11:36:58.236Z,7.80
2022-08-07T11:40:00.386Z,7.28
2022-08-07T11:42:49.371Z,8.18
2022-08-07T11:45:59.846Z,7.22
2022-08-07T11:49:50.885Z,8.50
2022-08-07T11:52:03.057Z,6.13
2022-08-07T11:55:01.679Z,6.47
2022-08-07T11:57:59.772Z,6.65
2022-08-07T12:01:02.134Z,7.78
2022-08-07T12:03:46.361Z,5.68
2022-08-07T12:06:40.300Z,7.68
2022-08-07T12:09:42.702Z,5.90
2022-08-07T12:12:18.091Z,6.72
2022-08-07T12:14:56.445Z,6.45
2022-08-07T12:17:58.900Z,6.13
2022-08-07T12:21:21.161Z,4.43
2022-08-07T12:24:37.662Z,4.57
2022-08-07T12:27:16.177Z,4.78
2022-08-07T12:29:57.453Z,4.95
2022-08-07T12:32:50.056Z,4.50
2022-08-07T12:35:19.577Z,4.60
2022-08-07T12:38:10.732Z,5.35
2022-08-07T12:40:48.827Z,4.47
2022-08-07T12:44:03.117Z,4.47
2022-08-07T12:46:15.925Z,6.20
2022-08-07T12:49:10.248Z,4.60
2022-08-07T12:52:13.681Z,3.90
2022-08-07T12:54:41.502Z,4.30
2022-08-07T12:57:10.340Z,5.47
2022-08-07T12:59:54.725Z,7.80
2022-08-07T13:02:57.826Z,5.70
2022-08-07T13:06:04.696Z,7.68
2022-08-07T13:10:37.161Z,7.63
2022-08-07T13:12:13.293Z,4.15
2022-08-07T13:15:03.370Z,4.40
2022-08-07T13:17:51.232Z,4.93
2022-08-07T13:20:55.890Z,4.25
2022-08-07T13:24:00.947Z,5.80
2022-08-07T13:26:46.359Z,5.13
2022-08-07T13:29:19.620Z,4.70
2022-08-07T13:31:57.195Z,4.88
2022-08-07T13:34:44.814Z,5.22
2022-08-07T13:37:58.689Z,5.70
2022-08-07T13:40:57.166Z,5.03
2022-08-07T13:43:28.887Z,7.05
2022-08-07T13:46:11.070Z,3.95
2022-08-07T13:52:04.809Z,6.10
2022-08-07T13:54:23.840Z,4.47
2022-08-07T13:56:59.856Z,4.13
2022-08-07T13:59:31.380Z,6.78
2022-08-07T14:02:33.252Z,4.28
2022-08-07T14:05:14.043Z,4.70
2022-08-07T14:08:00.915Z,4.28
2022-08-07T14:10:41.985Z,4.18
2022-08-07T14:13:18.409Z,5.80
2022-08-07T14:15:58.387Z,5.43
2022-08-07T14:18:38.715Z,6.05
2022-08-07T14:21:20.887Z,3.97
2022-08-07T14:24:04.812Z,4.60
2022-08-07T14:26:50.699Z,4.18
2022-08-07T14:30:06.367Z,5.53
2022-08-07T14:32:15.054Z,5.18
2022-08-07T14:34:47.000Z,4.15
2022-08-07T14:37:17.286Z,4.97
2022-08-07T14:40:16.871Z,4.60
2022-08-07T14:42:35.530Z,4.43
2022-08-07T14:45:25.162Z,4.13
2022-08-07T14:48:19.846Z,4.50
2022-08-07T14:56:32.013Z,4.05
2022-08-07T15:05:01.792Z,4.20
2022-08-07T15:07:47.405Z,5.28
2022-08-07T15:10:26.108Z,6.10
2022-08-07T15:13:00.284Z,4.65
2022-08-07T15:15:43.734Z,4.50
2022-08-07T15:18:35.714Z,4.72
2022-08-07T15:21:44.732Z,4.82
2022-08-07T15:25:12.961Z,5.28
2022-08-07T15:26:57.156Z,3.95
2022-08-07T15:30:08.407Z,6.65
2022-08-07T15:38:51.817Z,6.82
2022-08-07T15:41:24.017Z,4.90
2022-08-07T15:44:12.994Z,4.45
2022-08-07T15:46:51.853Z,6.63
2022-08-07T15:52:14.049Z,7.03
2022-08-07T15:54:47.712Z,4.07
2022-08-07T15:57:39.503Z,5.05
2022-08-07T16:00:31.079Z,6.28
2022-08-07T16:03:04.406Z,4.70
2022-08-07T16:05:32.309Z,5.90
2022-08-07T16:08:30.742Z,5.00
2022-08-07T16:11:26.981Z,4.07
2022-08-07T16:14:02.863Z,4.47
2022-08-07T16:16:57.019Z,4.75
2022-08-07T16:19:58.693Z,6.85
2022-08-07T16:22:31.830Z,5.25
2022-08-07T16:25:52.398Z,5.05
2022-08-07T16:30:06.926Z,6.03
2022-08-07T16:31:51.668Z,5.45
2022-08-07T16:34:50.768Z,4.72
2022-08-07T16:38:06.207Z,3.92
2022-08-07T16:40:18.913Z,3.80
2022-08-07T16:43:17.058Z,6.07
2022-08-07T16:46:47.649Z,4.30
2022-08-07T16:50:27.931Z,4.20
2022-08-07T16:52:51.638Z,4.10
2022-08-07T16:55:47.095Z,4.25
2022-08-07T16:58:20.441Z,4.85
2022-08-07T17:01:22.327Z,4.07
2022-08-07T17:04:09.637Z,7.65
2022-08-07T17:07:13.618Z,6.07
2022-08-07T17:10:06.284Z,5.97
2022-08-07T17:12:48.260Z,4.85
2022-08-07T17:15:43.823Z,5.97
2022-08-07T17:18:30.018Z,4.40
2022-08-07T17:20:58.541Z,7.25
2022-08-07T17:23:32.013Z,4.65
2022-08-07T17:26:23.943Z,5.88
2022-08-07T17:28:58.053Z,5.47
2022-08-07T17:32:02.525Z,7.78
2022-08-07T17:35:33.156Z,7.80
2022-08-07T17:40:35.590Z,9.70
2022-08-07T17:43:18.543Z,7.40
2022-08-07T17:45:55.602Z,6.88
2022-08-07T17:48:34.133Z,6.35
2022-08-07T17:51:21.625Z,5.00
2022-08-07T17:54:12.486Z,5.72
2022-08-07T17:56:59.034Z,5.05
2022-08-07T17:59:41.298Z,5.63
2022-08-07T18:02:17.424Z,4.68
2022-08-07T18:05:20.856Z,5.22
2022-08-07T18:08:25.576Z,6.47
2022-08-07T18:12:06.652Z,4.70
2022-08-07T18:14:24.139Z,7.78
2022-08-07T18:17:18.670Z,4.75
2022-08-07T18:21:08.442Z,4.82
2022-08-07T18:23:04.587Z,5.82
2022-08-07T18:25:40.650Z,5.53
2022-08-07T18:28:34.123Z,4.60
2022-08-07T18:31:15.146Z,4.88
2022-08-07T18:34:39.320Z,4.88
2022-08-07T18:38:59.264Z,6.53
2022-08-07T18:40:42.292Z,5.93
2022-08-07T18:43:37.209Z,5.65
2022-08-07T18:46:27.019Z,6.57
2022-08-07T18:50:05.066Z,5.65
2022-08-07T18:52:53.252Z,5.07
2022-08-07T18:55:41.782Z,5.60
2022-08-07T18:58:33.738Z,6.97
2022-08-07T19:02:32.952Z,7.65
2022-08-07T19:04:38.897Z,4.60
2022-08-07T19:07:35.588Z,9.20
2022-08-07T19:10:12.124Z,5.90
2022-08-07T19:13:10.272Z,6.47
2022-08-07T19:16:05.330Z,7.07
2022-08-07T19:19:02.439Z,5.25
2022-08-07T19:21:47.547Z,5.07
2022-08-07T19:24:43.394Z,6.05
2022-08-07T19:28:29.980Z,4.72
2022-08-07T19:30:56.024Z,5.10
2022-08-07T19:33:12.733Z,7.32
2022-08-07T19:35:46.149Z,5.93
2022-08-07T19:42:42.992Z,5.88
2022-08-07T19:46:05.456Z,4.75
2022-08-07T19:48:05.094Z,5.70
2022-08-07T19:50:51.105Z,6.25
2022-08-07T19:54:32.523Z,6.07
2022-08-07T19:58:01.762Z,7.60
2022-08-07T19:58:59.424Z,6.10
2022-08-07T20:01:52.237Z,5.40
2022-08-07T20:04:31.936Z,5.82
2022-08-07T20:07:09.255Z,5.88
2022-08-07T20:10:36.477Z,5.53
2022-08-07T20:12:39.575Z,5.65
2022-08-07T20:15:19.068Z,7.63
2022-08-07T20:18:01.259Z,6.57
2022-08-07T20:20:31.598Z,6.75
2022-08-07T20:23:22.979Z,6.53
2022-08-07T20:25:51.031Z,5.50
2022-08-07T20:28:29.582Z,6.72
2022-08-07T20:30:57.098Z,8.63
2022-08-07T20:33:38.280Z,5.93
2022-08-07T20:36:07.866Z,6.00
2022-08-07T20:39:00.124Z,9.35
2022-08-07T20:44:02.735Z,7.00
2022-08-07T20:46:42.947Z,7.07
2022-08-07T20:49:59.477Z,8.20
2022-08-07T20:52:13.852Z,7.82
2022-08-07T20:54:53.846Z,7.97
2022-08-07T20:57:28.615Z,7.03
2022-08-07T21:00:07.710Z,6.30
2022-08-07T21:02:58.751Z,7.22
2022-08-07T21:05:50.655Z,6.03
2022-08-07T21:08:37.488Z,8.30
2022-08-07T21:11:10.846Z,9.20
2022-08-07T21:13:57.208Z,6.78
2022-08-07T21:17:06.459Z,5.95
2022-08-07T21:19:51.586Z,5.97
2022-08-07T21:22:28.462Z,5.80
2022-08-07T21:25:38.796Z,7.40
2022-08-07T21:28:19.133Z,6.82
2022-08-07T21:31:15.062Z,7.57
2022-08-07T21:34:12.653Z,7.28
2022-08-07T21:36:51.126Z,6.32
2022-08-07T21:39:46.506Z,8.80
2022-08-07T21:43:01.324Z,8.02
2022-08-07T21:46:08.049Z,6.80
2022-08-07T21:49:00.115Z,6.55
2022-08-07T21:51:54.577Z,10.00
2022-08-07T21:54:27.236Z,11.48
2022-08-07T21:57:21.404Z,6.40
2022-08-07T22:00:22.878Z,5.28
2022-08-07T22:03:08.742Z,7.90
2022-08-07T22:05:54.173Z,6.47
2022-08-07T22:08:23.394Z,8.57
2022-08-07T22:10:57.304Z,7.60
2022-08-07T22:13:52.122Z,6.10
2022-08-07T22:16:39.459Z,7.45
2022-08-07T22:19:29.648Z,9.02
2022-08-07T22:22:20.717Z,7.43
2022-08-07T22:25:07.650Z,8.23
2022-08-07T22:28:07.925Z,6.00
2022-08-07T22:31:00.529Z,6.15
2022-08-07T22:33:53.287Z,6.05
2022-08-07T22:36:42.207Z,8.65
2022-08-07T22:39:53.602Z,8.25
2022-08-07T22:42:25.905Z,6.38
2022-08-07T22:44:59.980Z,6.78
2022-08-07T22:47:37.802Z,8.23
2022-08-07T22:50:33.255Z,6.68
2022-08-07T22:53:15.249Z,6.53
2022-08-07T22:56:02.881Z,7.72
2022-08-07T23:01:42.116Z,7.55
2022-08-07T23:04:29.839Z,5.72
2022-08-07T23:07:41.874Z,6.50
2022-08-07T23:10:36.476Z,6.85
2022-08-07T23:13:29.573Z,7.78
2022-08-07T23:16:44.877Z,6.30
2022-08-07T23:19:58.508Z,6.57
2022-08-07T23:22:39.683Z,6.18
2022-08-07T23:25:20.785Z,6.28
2022-08-07T23:28:21.280Z,7.20
2022-08-07T23:31:06.544Z,6.15
2022-08-07T23:34:20.384Z,6.47
2022-08-07T23:36:54.682Z,6.85
2022-08-07T23:39:56.798Z,6.55
2022-08-07T23:42:53.257Z,5.20
2022-08-07T23:46:02.900Z,7.20
2022-08-07T23:48:48.922Z,5.55
2022-08-07T23:53:00.113Z,7.00
2022-08-07T23:54:44.057Z,5.97
2022-08-07T23:57:34.909Z,7.60
